Time;durP1;ratioP1;P1;durP2;ratioP2;P2;SDS_P1;SDS_P2;PMS_P1;PMS_P2;Temp;Humidity;BMP_temperature;BMP_pressure;BME280_temperature;BME280_humidity;BME280_pressure;Samples;Min_cycle;Max_cycle;Signal;HPM_P1;HPM_P2
2021/08/24 00:01:12;;;;;;;8.80;5.30;;;;;;;13.89;75.71;101311.06;5018434;28;20054;-80
2021/08/24 00:03:50;;;;;;;6.30;5.25;;;;;;;13.86;75.97;101312.53;5012940;28;20497;-78
2021/08/24 00:06:36;;;;;;;;;;;;;;;13.79;75.96;101310.13;5026642;28;20046;-80
2021/08/24 00:09:13;;;;;;;6.53;5.35;;;;;;;13.81;75.82;101304.22;5028970;28;19921;-80
2021/08/24 00:11:50;;;;;;;5.80;4.63;;;;;;;13.86;76.01;101320.06;5028935;28;20053;-80
2021/08/24 00:14:30;;;;;;;6.20;4.53;;;;;;;13.88;75.32;101313.03;5028708;28;20054;-80
2021/08/24 00:17:05;;;;;;;;;;;;;;;13.86;75.68;101318.13;5016429;28;20137;-79
2021/08/24 00:19:42;;;;;;;5.75;4.32;;;;;;;13.88;75.19;101314.97;5027475;28;19925;-80
2021/08/24 00:22:25;;;;;;;7.03;4.35;;;;;;;13.86;75.39;101312.53;5011283;28;20064;-79
2021/08/24 00:25:06;;;;;;;6.05;4.55;;;;;;;13.79;75.59;101321.34;5009173;28;20383;-79
2021/08/24 00:27:46;;;;;;;6.93;4.65;;;;;;;13.75;75.30;101325.09;5007181;28;20050;-79
2021/08/24 00:30:29;;;;;;;6.57;4.68;;;;;;;13.76;75.70;101330.38;5007867;28;20061;-79
2021/08/24 00:33:12;;;;;;;7.68;4.80;;;;;;;13.79;75.98;101324.13;5021455;28;20068;-78
2021/08/24 00:36:03;;;;;;;7.68;4.30;;;;;;;13.82;75.78;101325.50;5008392;28;20055;-80
2021/08/24 00:38:48;;;;;;;4.63;3.85;;;;;;;13.90;75.43;101327.56;5008322;28;20054;-79
2021/08/24 00:41:26;;;;;;;5.55;3.95;;;;;;;13.95;75.40;101315.38;5007992;28;20065;-78
2021/08/24 00:44:06;;;;;;;5.43;3.97;;;;;;;13.96;75.06;101317.03;5008474;28;20068;-80
2021/08/24 00:47:02;;;;;;;6.72;4.25;;;;;;;13.95;74.53;101321.81;5008824;28;20054;-79
2021/08/24 00:49:44;;;;;;;6.65;3.70;;;;;;;13.96;74.51;101325.44;5021105;28;20060;-80
2021/08/24 00:52:22;;;;;;;5.50;4.03;;;;;;;13.88;73.97;101324.25;5032433;28;20060;-79
2021/08/24 00:55:11;;;;;;;7.17;4.17;;;;;;;13.76;74.65;101324.78;5049286;28;20401;-80
2021/08/24 00:58:10;;;;;;;4.95;3.95;;;;;;;13.70;74.64;101320.44;5048019;28;20060;-78
2021/08/24 01:00:51;;;;;;;6.80;3.83;;;;;;;13.71;74.31;101324.91;5030263;28;20363;-80
2021/08/24 01:03:38;;;;;;;7.72;4.38;;;;;;;13.70;74.13;101322.41;5047102;28;20513;-79
2021/08/24 01:06:13;;;;;;;6.47;3.85;;;;;;;13.66;74.62;101322.19;5041866;28;20057;-80
2021/08/24 01:08:48;;;;;;;8.10;4.35;;;;;;;13.56;74.61;101322.44;5020113;28;20407;-80
2021/08/24 01:11:25;;;;;;;7.43;4.10;;;;;;;13.54;74.78;101324.72;5020838;28;20064;-80
2021/08/24 01:14:05;;;;;;;7.90;4.25;;;;;;;13.48;74.60;101328.75;5027082;28;20054;-80
2021/08/24 01:16:40;;;;;;;6.28;4.07;;;;;;;13.40;75.12;101330.34;5021100;28;20072;-80
2021/08/24 01:19:39;;;;;;;8.43;4.68;;;;;;;13.32;75.64;101331.06;5021004;28;20053;-80
2021/08/24 01:22:35;;;;;;;5.20;4.25;;;;;;;13.35;76.00;101327.66;5020987;28;20054;-80
2021/08/24 01:25:09;;;;;;;5.78;4.50;;;;;;;13.36;75.49;101324.53;5021501;28;20057;-79
2021/08/24 01:27:47;;;;;;;7.13;4.00;;;;;;;13.37;75.22;101323.38;5021780;28;20407;-80
2021/08/24 01:30:26;;;;;;;7.13;4.18;;;;;;;13.36;75.06;101324.53;5021407;28;20057;-79
2021/08/24 01:33:28;;;;;;;7.75;4.43;;;;;;;13.32;74.92;101322.69;5022977;28;20053;-80
2021/08/24 01:36:29;;;;;;;5.40;4.07;;;;;;;13.28;74.62;101327.22;5028927;28;20054;-79
2021/08/24 01:39:24;;;;;;;6.40;4.43;;;;;;;13.19;75.35;101330.72;5028757;28;20061;-80
2021/08/24 01:42:22;;;;;;;5.75;4.47;;;;;;;13.13;75.61;101322.75;5029277;28;20065;-80
2021/08/24 01:45:18;;;;;;;6.90;4.35;;;;;;;13.05;75.18;101324.31;5026933;28;20054;-79
2021/08/24 01:48:10;;;;;;;7.50;4.18;;;;;;;13.02;75.26;101332.47;5028233;28;20045;-79
2021/08/24 01:50:50;;;;;;;5.93;3.90;;;;;;;13.00;75.56;101330.84;5028677;28;20064;-79
2021/08/24 01:56:55;;;;;;;6.45;4.20;;;;;;;12.98;75.09;101338.72;5028611;28;20061;-79
2021/08/24 01:59:51;;;;;;;5.03;3.90;;;;;;;12.93;74.98;101333.19;5010549;28;20072;-79
2021/08/24 02:02:50;;;;;;;7.63;4.32;;;;;;;12.85;75.52;101333.94;5009833;28;20065;-80
2021/08/24 02:05:31;;;;;;;5.75;4.43;;;;;;;12.76;75.78;101335.78;5008289;28;20058;-80
2021/08/24 02:08:04;;;;;;;6.28;4.15;;;;;;;12.70;75.68;101346.22;5003806;28;20062;-79
2021/08/24 02:10:35;;;;;;;5.47;4.45;;;;;;;12.72;75.76;101340.31;5015330;28;20050;-79
2021/08/24 02:13:05;;;;;;;6.10;4.85;;;;;;;12.59;76.32;101350.34;5020247;28;20058;-80
2021/08/24 02:15:37;;;;;;;7.53;4.60;;;;;;;12.64;75.69;101338.22;5035380;28;20053;-79
2021/08/24 02:18:06;;;;;;;6.22;4.53;;;;;;;12.65;75.40;101339.91;5040707;28;20064;-79
2021/08/24 02:20:39;;;;;;;7.43;4.90;;;;;;;12.65;75.11;101339.91;5041326;28;20053;-79
2021/08/24 02:23:13;;;;;;;7.95;4.78;;;;;;;12.63;75.12;101344.97;5037239;28;20053;-79
2021/08/24 02:25:46;;;;;;;7.15;4.70;;;;;;;12.55;75.13;101344.53;5021235;28;20053;-78
2021/08/24 02:28:21;;;;;;;9.55;5.03;;;;;;;12.51;75.64;101346.25;5021574;28;20050;-79
2021/08/24 02:31:10;;;;;;;5.95;4.85;;;;;;;12.42;76.01;101344.50;5021912;28;20395;-79
2021/08/24 02:34:16;;;;;;;5.95;4.72;;;;;;;12.42;76.11;101342.53;5041374;28;20042;-79
2021/08/24 02:40:17;;;;;;;7.78;4.85;;;;;;;12.37;75.63;101349.03;5025689;28;20490;-78
2021/08/24 02:43:08;;;;;;;;;;;;;;;12.31;76.22;101343.84;5009378;28;20058;-80
2021/08/24 02:45:56;;;;;;;6.63;4.38;;;;;;;12.33;75.29;101336.81;5010677;28;19927;-81
2021/08/24 02:48:49;;;;;;;6.00;4.63;;;;;;;12.31;75.23;101343.84;5018979;28;20057;-81
2021/08/24 02:51:38;;;;;;;6.00;4.80;;;;;;;12.28;75.67;101347.22;5045960;28;20049;-81
2021/08/24 02:54:24;;;;;;;8.43;5.07;;;;;;;12.20;75.28;101351.56;5027803;28;20057;-81
2021/08/24 02:57:06;;;;;;;7.68;5.10;;;;;;;12.12;75.93;101349.47;5048125;28;20053;-81
2021/08/24 03:00:16;;;;;;;5.97;4.95;;;;;;;12.12;76.02;101352.25;5047611;28;20053;-81
2021/08/24 03:03:12;;;;;;;7.85;4.70;;;;;;;12.13;75.79;101340.75;5046217;28;20045;-80
2021/08/24 03:05:52;;;;;;;9.05;4.72;;;;;;;12.12;75.82;101344.69;5046583;28;20072;-80
2021/08/24 03:08:30;;;;;;;5.40;4.47;;;;;;;12.10;75.50;101344.16;5046769;28;20050;-80
2021/08/24 03:11:11;;;;;;;6.63;4.45;;;;;;;12.08;75.72;101342.81;5029245;28;20057;-81
2021/08/24 03:13:57;;;;;;;6.85;4.70;;;;;;;12.08;75.31;101348.41;5026454;28;20053;-81
2021/08/24 03:16:47;;;;;;;6.00;4.38;;;;;;;12.02;75.59;101355.19;5017776;28;20056;-80
2021/08/24 03:19:30;;;;;;;7.38;4.78;;;;;;;12.01;75.81;101356.31;5006901;28;20058;-81
2021/08/24 03:22:12;;;;;;;6.55;4.28;;;;;;;11.98;75.90;101366.13;4991295;28;20068;-80
2021/08/24 03:25:04;;;;;;;6.38;4.30;;;;;;;11.97;75.82;101362.50;5015411;28;20058;-80
2021/08/24 03:27:52;;;;;;;6.90;3.85;;;;;;;11.95;75.31;101361.16;5006235;28;20050;-79
2021/08/24 03:30:23;;;;;;;6.75;5.03;;;;;;;11.90;75.67;101358.44;5002219;28;20054;-81
2021/08/24 03:32:52;;;;;;;6.35;5.20;;;;;;;11.89;75.64;101357.59;4997510;28;20484;-81
2021/08/24 03:35:22;;;;;;;6.85;4.38;;;;;;;11.91;75.26;101357.31;4998498;28;20058;-80
2021/08/24 03:37:50;;;;;;;7.20;4.60;;;;;;;11.92;75.41;101359.78;4997721;28;20522;-80
2021/08/24 03:40:17;;;;;;;7.60;4.90;;;;;;;11.89;75.21;101362.38;5011331;28;20054;-80
2021/08/24 03:42:44;;;;;;;8.27;4.57;;;;;;;11.88;75.04;101367.09;5018291;28;20054;-80
2021/08/24 03:45:12;;;;;;;7.72;5.38;;;;;;;11.82;75.24;101373.84;5018207;28;20053;-79
2021/08/24 03:47:40;;;;;;;7.25;4.63;;;;;;;11.77;75.38;101371.97;5018596;28;20053;-80
2021/08/24 03:50:10;;;;;;;6.63;4.70;;;;;;;11.75;75.47;101370.63;5017673;28;20455;-81
2021/08/24 03:52:37;;;;;;;8.25;4.90;;;;;;;11.69;75.68;101380.19;5017269;28;20062;-81
2021/08/24 03:55:06;;;;;;;8.00;4.47;;;;;;;11.75;75.71;101376.19;5019061;28;20054;-81
2021/08/24 03:57:33;;;;;;;6.53;4.60;;;;;;;11.76;75.43;101375.09;5033064;28;20046;-80
2021/08/24 04:00:00;;;;;;;6.65;4.32;;;;;;;11.74;75.70;101382.91;5038096;28;20060;-81
2021/08/24 04:02:27;;;;;;;8.50;5.22;;;;;;;11.74;75.43;101375.38;5037440;28;20062;-79
2021/08/24 04:04:55;;;;;;;7.05;4.70;;;;;;;11.74;75.34;101375.38;5037064;28;20053;-80
2021/08/24 04:07:24;;;;;;;7.20;5.18;;;;;;;11.73;75.47;101384.88;5036683;28;20053;-79
2021/08/24 04:09:52;;;;;;;9.60;5.55;;;;;;;11.70;75.80;101390.22;5028022;28;20042;-80
2021/08/24 04:12:20;;;;;;;7.28;5.57;;;;;;;11.67;75.54;101388.03;5017750;28;20053;-81
2021/08/24 04:14:47;;;;;;;7.60;5.45;;;;;;;11.66;75.64;101380.81;5035553;28;20060;-81
2021/08/24 04:17:15;;;;;;;7.93;5.82;;;;;;;11.63;75.75;101389.75;5037395;28;20046;-79
2021/08/24 04:19:42;;;;;;;8.30;5.50;;;;;;;11.62;75.59;101391.72;5037306;28;20053;-78
2021/08/24 04:22:11;;;;;;;6.40;4.70;;;;;;;11.64;75.51;101389.47;5034613;28;20387;-78
2021/08/24 04:24:42;;;;;;;8.57;4.80;;;;;;;11.66;75.19;101387.19;5020009;28;20054;-79
2021/08/24 04:27:10;;;;;;;6.55;4.60;;;;;;;11.60;75.53;101388.41;5022596;28;20057;-78
2021/08/24 04:29:38;;;;;;;6.30;4.70;;;;;;;11.56;75.81;101384.53;5021915;28;20065;-80
2021/08/24 04:32:06;;;;;;;7.10;4.30;;;;;;;11.55;75.19;101385.69;5020969;28;20058;-80
2021/08/24 04:34:34;;;;;;;6.38;4.57;;;;;;;11.57;75.52;101380.63;5021569;28;20394;-80
2021/08/24 04:37:01;;;;;;;7.80;4.82;;;;;;;11.56;75.06;101378.97;5021475;28;20061;-80
2021/08/24 04:39:28;;;;;;;6.88;4.10;;;;;;;11.55;75.42;101382.91;5021442;28;20050;-81
2021/08/24 04:41:57;;;;;;;8.27;5.07;;;;;;;11.64;76.34;101388.63;5021500;28;20069;-80
2021/08/24 04:44:24;;;;;;;6.07;4.20;;;;;;;11.68;76.48;101386.91;5021533;28;20050;-80
2021/08/24 04:46:52;;;;;;;8.75;4.13;;;;;;;11.75;76.38;101390.16;5021358;28;20408;-79
2021/08/24 04:49:21;;;;;;;5.50;3.80;;;;;;;11.76;76.51;101392.66;5020941;28;20054;-80
2021/08/24 04:51:48;;;;;;;7.43;3.90;;;;;;;11.86;76.17;101402.00;5021441;28;20053;-80
2021/08/24 04:54:15;;;;;;;7.35;3.65;;;;;;;11.96;75.49;101401.91;5021829;28;20510;-80
2021/08/24 04:56:43;;;;;;;6.70;4.13;;;;;;;11.99;74.92;101404.09;5022179;28;20050;-80
2021/08/24 04:59:11;;;;;;;7.32;4.38;;;;;;;12.05;74.85;101416.84;5021442;28;20517;-79
2021/08/24 05:01:39;;;;;;;6.35;4.03;;;;;;;12.11;74.20;101407.25;5021385;28;20057;-80
2021/08/24 05:04:06;;;;;;;7.25;4.15;;;;;;;12.11;74.08;101407.25;5022353;28;20052;-81
2021/08/24 05:06:34;;;;;;;7.50;4.47;;;;;;;12.16;73.91;101409.16;5021114;28;20065;-81
2021/08/24 05:09:02;;;;;;;6.22;4.20;;;;;;;12.21;73.89;101414.66;5020172;28;20050;-81
2021/08/24 05:11:29;;;;;;;8.25;4.32;;;;;;;12.25;73.99;101410.13;5019379;28;20049;-80
2021/08/24 05:13:56;;;;;;;8.98;4.70;;;;;;;12.28;74.42;101415.09;5019843;28;20073;-78
2021/08/24 05:16:25;;;;;;;5.70;4.28;;;;;;;12.33;73.95;101408.63;5020799;28;20045;-79
2021/08/24 05:18:52;;;;;;;7.80;4.20;;;;;;;12.38;73.82;101416.91;5000745;28;20050;-80
2021/08/24 05:21:20;;;;;;;6.45;4.80;;;;;;;12.43;73.36;101402.88;5005024;28;20053;-80
2021/08/24 05:23:47;;;;;;;6.55;4.30;;;;;;;12.47;73.57;101400.28;5013392;28;20045;-80
2021/08/24 05:26:19;;;;;;;7.05;4.40;;;;;;;12.48;73.53;101413.97;5019871;28;20054;-78
2021/08/24 05:28:47;;;;;;;6.18;4.30;;;;;;;12.57;73.59;101409.31;5020065;28;20076;-81
2021/08/24 05:31:14;;;;;;;5.22;3.78;;;;;;;12.63;73.37;101414.84;5020625;28;20054;-81
2021/08/24 05:33:43;;;;;;;5.60;3.92;;;;;;;12.55;73.72;101419.97;5020437;28;20367;-81
2021/08/24 05:36:11;;;;;;;8.80;4.40;;;;;;;12.68;73.41;101418.41;5019117;28;20058;-81
2021/08/24 05:38:40;;;;;;;5.53;3.80;;;;;;;12.76;72.79;101420.47;5028978;28;20488;-79
2021/08/24 05:41:08;;;;;;;6.18;4.28;;;;;;;12.82;72.16;101418.41;5024159;28;20065;-81
2021/08/24 05:43:35;;;;;;;7.63;4.55;;;;;;;12.90;72.51;101425.28;5020850;28;20065;-80
2021/08/24 05:46:06;;;;;;;5.75;4.03;;;;;;;12.92;72.52;101426.63;5020086;28;20045;-80
2021/08/24 05:48:35;;;;;;;8.02;4.63;;;;;;;12.98;72.60;101428.19;5020406;28;20045;-79
2021/08/24 05:51:09;;;;;;;7.35;4.20;;;;;;;13.06;73.00;101425.81;5020288;28;20594;-80
2021/08/24 05:53:36;;;;;;;6.80;4.47;;;;;;;13.14;72.93;101431.53;5019714;28;20058;-79
2021/08/24 05:56:07;;;;;;;7.50;5.03;;;;;;;13.07;73.83;101430.28;5021000;28;20054;-74
2021/08/24 05:58:35;;;;;;;7.30;5.47;;;;;;;13.16;74.69;101431.22;5014891;28;20054;-74
2021/08/24 06:01:02;;;;;;;8.60;5.38;;;;;;;13.04;75.04;101442.94;5014238;28;20053;-73
2021/08/24 06:03:29;;;;;;;7.15;4.35;;;;;;;13.40;74.74;101431.91;5014994;28;20077;-74
2021/08/24 06:05:58;;;;;;;7.30;3.53;;;;;;;13.65;74.17;101435.34;5014364;28;20046;-73
2021/08/24 06:08:27;;;;;;;4.88;3.05;;;;;;;13.87;72.79;101437.38;5014502;28;20065;-73
2021/08/24 06:10:54;;;;;;;5.40;3.45;;;;;;;14.01;72.15;101437.38;5016302;28;20050;-79
2021/08/24 06:13:21;;;;;;;6.07;2.80;;;;;;;14.09;71.26;101431.03;5025227;28;20457;-81
2021/08/24 06:15:49;;;;;;;6.03;3.47;;;;;;;14.21;70.52;101438.88;5019941;28;20038;-80
2021/08/24 06:18:16;;;;;;;5.55;3.67;;;;;;;14.27;70.49;101428.38;5021082;28;20045;-80
2021/08/24 06:20:43;;;;;;;6.38;3.75;;;;;;;14.37;70.24;101433.75;5020064;28;20061;-80
2021/08/24 06:23:10;;;;;;;6.85;3.67;;;;;;;14.42;69.76;101430.81;5013639;28;20058;-81
2021/08/24 06:25:39;;;;;;;5.95;3.80;;;;;;;14.49;70.02;101436.81;5017558;28;20383;-82
2021/08/24 06:28:06;;;;;;;5.30;3.83;;;;;;;14.51;69.96;101440.16;5019798;28;20049;-80
2021/08/24 06:30:34;;;;;;;4.90;3.67;;;;;;;14.60;69.91;101432.66;5021240;28;20056;-81
2021/08/24 06:33:01;;;;;;;4.15;3.65;;;;;;;14.73;69.81;101436.53;5020737;28;20049;-80
2021/08/24 06:35:29;;;;;;;6.32;3.75;;;;;;;14.81;69.99;101430.16;5022014;28;20065;-81
2021/08/24 06:37:56;;;;;;;5.55;3.78;;;;;;;14.91;69.55;101439.44;5021707;28;20057;-81
2021/08/24 06:40:23;;;;;;;5.43;3.58;;;;;;;14.93;69.94;101440.81;5022316;28;20050;-80
2021/08/24 06:42:54;;;;;;;6.97;3.72;;;;;;;15.01;69.51;101437.22;5006046;28;20061;-80
2021/08/24 06:45:26;;;;;;;7.20;3.70;;;;;;;15.14;69.60;101445.84;5022100;28;20064;-80
2021/08/24 06:47:53;;;;;;;5.95;3.85;;;;;;;15.22;69.07;101440.31;5022482;28;20056;-80
2021/08/24 06:50:23;;;;;;;5.57;3.80;;;;;;;15.31;69.06;101439.53;5021679;28;20064;-80
2021/08/24 06:52:50;;;;;;;4.60;3.97;;;;;;;15.41;69.19;101440.06;5021425;28;20054;-81
2021/08/24 06:55:25;;;;;;;6.53;4.10;;;;;;;15.54;68.67;101440.25;5015656;28;20065;-81
2021/08/24 06:57:54;;;;;;;6.78;4.57;;;;;;;15.60;68.86;101444.59;5014139;28;20058;-79
2021/08/24 07:00:24;;;;;;;6.78;4.43;;;;;;;15.75;68.85;101438.56;5009217;28;20053;-79
2021/08/24 07:02:53;;;;;;;7.25;4.10;;;;;;;15.86;68.77;101444.72;5012722;28;20054;-79
2021/08/24 07:05:22;;;;;;;6.60;4.65;;;;;;;16.02;68.60;101445.06;5007375;28;20065;-79
2021/08/24 07:07:49;;;;;;;9.50;4.10;;;;;;;16.13;68.36;101443.63;5005753;28;20069;-79
2021/08/24 07:10:19;;;;;;;5.43;4.20;;;;;;;16.30;68.24;101439.19;5004417;28;20050;-78
2021/08/24 07:12:47;;;;;;;9.25;4.70;;;;;;;16.40;68.42;101438.84;4997100;28;20054;-79
2021/08/24 07:15:21;;;;;;;11.43;4.75;;;;;;;16.56;67.98;101436.34;5004504;28;20496;-78
2021/08/24 07:17:52;;;;;;;5.47;4.28;;;;;;;16.70;68.06;101433.38;5004543;28;20061;-80
2021/08/24 07:20:22;;;;;;;7.10;4.65;;;;;;;16.86;67.83;101439.31;4996512;28;20054;-80
2021/08/24 07:22:50;;;;;;;19.58;13.38;;;;;;;16.96;67.37;101441.78;5001679;28;20415;-80
2021/08/24 07:25:21;;;;;;;6.13;4.47;;;;;;;17.21;66.37;101438.06;5004671;28;20058;-79
2021/08/24 07:27:48;;;;;;;7.28;4.60;;;;;;;17.54;65.49;101433.84;5009162;28;20410;-80
2021/08/24 07:30:17;;;;;;;7.18;4.50;;;;;;;18.15;63.42;101433.50;5003413;28;20054;-79
2021/08/24 07:32:45;;;;;;;5.70;4.53;;;;;;;18.98;60.59;101431.78;4999960;28;20053;-79
2021/08/24 07:35:14;;;;;;;5.47;3.95;;;;;;;20.05;57.74;101431.78;5016514;28;20042;-79
2021/08/24 07:37:41;;;;;;;5.20;3.93;;;;;;;21.19;52.61;101428.69;5002122;28;20058;-79
2021/08/24 07:40:10;;;;;;;4.15;3.40;;;;;;;22.19;50.20;101423.84;5011692;28;20050;-79
2021/08/24 07:42:38;;;;;;;4.38;3.28;;;;;;;23.21;47.40;101422.75;4998285;28;20062;-79
2021/08/24 07:45:08;;;;;;;4.32;2.75;;;;;;;24.37;43.93;101421.34;5009529;28;20050;-78
2021/08/24 07:47:36;;;;;;;;;;;;;;;24.87;43.10;101422.00;5011364;28;20058;-79
2021/08/24 07:50:04;;;;;;;5.88;2.70;;;;;;;26.12;39.48;101421.50;5009380;28;20405;-77
2021/08/24 07:52:32;;;;;;;2.83;2.53;;;;;;;27.19;37.18;101418.25;5013527;28;20061;-78
2021/08/24 07:54:59;;;;;;;3.77;2.60;;;;;;;27.81;35.50;101425.66;4998991;28;20058;-79
2021/08/24 07:57:27;;;;;;;3.65;2.63;;;;;;;28.57;34.64;101417.75;5006598;28;20038;-79
2021/08/24 07:59:54;;;;;;;5.22;2.92;;;;;;;29.49;32.78;101421.31;5009776;28;20053;-79
2021/08/24 08:02:24;;;;;;;6.75;3.30;;;;;;;29.85;31.39;101415.25;5015455;28;20049;-77
2021/08/24 08:04:53;;;;;;;6.38;3.05;;;;;;;30.71;29.51;101417.16;4996957;28;20054;-78
2021/08/24 08:07:23;;;;;;;3.67;2.80;;;;;;;31.34;29.03;101416.69;4997275;28;20057;-77
2021/08/24 08:09:50;;;;;;;4.43;3.03;;;;;;;31.78;27.90;101425.44;5005004;28;20054;-79
2021/08/24 08:12:20;;;;;;;4.30;2.63;;;;;;;32.11;27.88;101420.75;5008431;28;20077;-80
2021/08/24 08:14:48;;;;;;;4.72;3.17;;;;;;;32.78;27.51;101427.63;5002692;28;20058;-81
2021/08/24 08:17:15;;;;;;;4.20;2.47;;;;;;;33.15;25.34;101424.31;5013361;28;20050;-81
2021/08/24 08:19:43;;;;;;;3.28;2.60;;;;;;;33.84;24.91;101435.00;5008653;28;20376;-81
2021/08/24 08:22:12;;;;;;;3.25;2.22;;;;;;;34.08;24.11;101423.22;5017333;28;20054;-80
2021/08/24 08:24:40;;;;;;;3.60;2.80;;;;;;;34.53;23.07;101428.16;5008574;28;20050;-81
2021/08/24 08:27:07;;;;;;;3.25;2.60;;;;;;;34.31;23.94;101423.03;5006294;28;20054;-78
2021/08/24 08:29:35;;;;;;;3.73;2.93;;;;;;;35.40;22.50;101427.13;4998808;28;20065;-81
2021/08/24 08:32:08;;;;;;;3.47;2.60;;;;;;;36.11;21.88;101423.06;5002637;28;20476;-79
2021/08/24 08:34:36;;;;;;;3.70;2.70;;;;;;;36.86;21.00;101419.44;5009678;28;20058;-79
2021/08/24 08:37:04;;;;;;;3.38;2.20;;;;;;;37.55;19.47;101421.19;5008888;28;20057;-79
2021/08/24 08:39:32;;;;;;;3.50;2.25;;;;;;;38.26;18.61;101423.09;5014762;28;20049;-79
2021/08/24 08:42:26;;;;;;;5.18;2.20;;;;;;;38.28;18.21;101419.69;5010417;28;20049;-77
2021/08/24 08:44:58;;;;;;;4.00;2.17;;;;;;;38.52;18.28;101422.75;5007765;28;20060;-77
2021/08/24 08:47:49;;;;;;;3.45;2.50;;;;;;;39.27;17.85;101418.31;5005631;28;20076;-77
2021/08/24 08:50:25;;;;;;;3.97;2.30;;;;;;;40.15;17.25;101417.09;5011388;28;20053;-80
2021/08/24 08:52:59;;;;;;;3.38;2.30;;;;;;;40.93;15.67;101417.00;5004271;28;20053;-81
2021/08/24 08:55:35;;;;;;;4.18;2.20;;;;;;;40.86;14.57;101412.38;5008099;28;20050;-80
2021/08/24 08:58:12;;;;;;;3.10;1.90;;;;;;;41.63;15.06;101409.63;4998186;28;20054;-80
2021/08/24 09:00:48;;;;;;;4.05;2.30;;;;;;;41.73;14.56;101414.00;5017284;28;20049;-79
2021/08/24 09:03:18;;;;;;;3.35;2.35;;;;;;;42.47;14.35;101407.72;5022088;28;20046;-79
2021/08/24 09:05:48;;;;;;;4.13;2.20;;;;;;;42.87;12.89;101413.97;5008883;28;20050;-80
2021/08/24 09:08:19;;;;;;;2.40;2.00;;;;;;;43.07;12.91;101410.94;5006636;28;20069;-80
2021/08/24 09:10:50;;;;;;;3.30;2.50;;;;;;;42.48;13.94;101420.25;5005807;28;20049;-80
2021/08/24 09:13:25;;;;;;;3.92;2.60;;;;;;;43.30;12.64;101419.91;5014725;28;20061;-80
2021/08/24 09:15:58;;;;;;;3.05;2.28;;;;;;;42.73;13.25;101413.53;5007012;28;20054;-80
2021/08/24 09:18:47;;;;;;;2.75;2.35;;;;;;;42.90;12.41;101407.06;4998763;28;20054;-80
2021/08/24 09:21:22;;;;;;;3.53;2.25;;;;;;;42.65;13.00;101418.28;5011025;28;20426;-79
2021/08/24 09:23:52;;;;;;;2.95;2.00;;;;;;;43.83;11.89;101417.53;5009992;28;20057;-80
2021/08/24 09:26:39;;;;;;;3.67;2.53;;;;;;;44.11;12.07;101418.50;5012612;28;20057;-79
2021/08/24 09:29:08;;;;;;;5.63;2.75;;;;;;;43.89;11.99;101421.31;5011599;28;20069;-81
2021/08/24 09:31:36;;;;;;;2.25;2.03;;;;;;;44.35;11.94;101420.13;5012596;28;20054;-82
2021/08/24 09:34:04;;;;;;;3.08;2.30;;;;;;;44.75;11.33;101410.06;5004600;28;20057;-80
2021/08/24 09:36:32;;;;;;;2.78;2.40;;;;;;;43.18;12.24;101419.00;5007118;28;20050;-81
2021/08/24 09:39:00;;;;;;;3.97;2.50;;;;;;;44.01;11.67;101416.28;5012699;28;20521;-81
2021/08/24 09:41:32;;;;;;;2.92;2.50;;;;;;;43.96;11.47;101417.88;5008681;28;20046;-81
2021/08/24 09:44:20;;;;;;;3.42;2.00;;;;;;;44.17;11.50;101416.38;5010031;28;20061;-82
2021/08/24 09:46:49;;;;;;;2.95;2.33;;;;;;;43.33;11.83;101413.00;5005444;28;20053;-82
2021/08/24 09:49:35;;;;;;;3.47;2.45;;;;;;;44.33;11.10;101406.00;4998313;28;20065;-77
2021/08/24 09:52:07;;;;;;;3.75;2.92;;;;;;;45.09;11.55;101407.13;5005396;28;20057;-78
2021/08/24 09:54:38;;;;;;;3.08;2.22;;;;;;;45.29;11.17;101411.94;5005125;28;20050;-79
2021/08/24 09:57:23;;;;;;;2.83;2.53;;;;;;;44.84;10.77;101420.75;5006582;28;20410;-80
2021/08/24 09:59:59;;;;;;;2.75;2.53;;;;;;;45.33;11.13;101414.59;5015723;28;20511;-78
2021/08/24 10:02:39;;;;;;;2.65;2.30;;;;;;;45.67;10.84;101409.44;4998933;28;20054;-79
2021/08/24 10:05:10;;;;;;;4.55;2.70;;;;;;;45.57;11.58;101405.97;4997970;28;20058;-80
2021/08/24 10:07:39;;;;;;;3.40;2.72;;;;;;;45.64;10.53;101410.53;5011866;28;20054;-80
2021/08/24 10:10:12;;;;;;;3.15;2.35;;;;;;;45.86;10.18;101411.78;5002525;28;20050;-80
2021/08/24 10:12:41;;;;;;;4.78;2.30;;;;;;;45.48;9.75;101409.19;5015472;28;20503;-80
2021/08/24 10:15:37;;;;;;;2.65;2.30;;;;;;;45.18;10.27;101400.97;5016254;28;20058;-79
2021/08/24 10:18:07;;;;;;;3.92;2.47;;;;;;;45.86;10.23;101402.94;4975310;28;20521;-78
2021/08/24 10:20:36;;;;;;;2.58;2.33;;;;;;;46.12;9.60;101411.41;5014867;28;20042;-77
2021/08/24 10:23:11;;;;;;;3.75;2.55;;;;;;;45.44;9.55;101408.69;5015571;28;20434;-80
2021/08/24 10:25:44;;;;;;;2.70;2.17;;;;;;;44.21;10.66;101410.25;5008306;28;20050;-77
2021/08/24 10:28:20;;;;;;;2.55;2.13;;;;;;;44.57;10.55;101416.47;5006015;28;20077;-77
2021/08/24 10:30:52;;;;;;;3.47;2.25;;;;;;;44.79;10.15;101412.72;5016341;28;20045;-77
2021/08/24 10:33:29;;;;;;;3.63;2.40;;;;;;;44.92;9.80;101400.47;5015232;28;20052;-81
2021/08/24 10:36:01;;;;;;;2.83;2.15;;;;;;;45.40;10.08;101408.16;5014432;28;20514;-77
2021/08/24 10:38:44;;;;;;;2.78;2.15;;;;;;;45.45;9.95;101410.28;5015401;28;20049;-77
2021/08/24 10:41:35;;;;;;;3.17;2.10;;;;;;;45.73;10.33;101406.47;5015948;28;20053;-78
2021/08/24 10:44:14;;;;;;;3.42;2.50;;;;;;;45.83;9.41;101410.72;5016038;28;20395;-78
2021/08/24 10:46:50;;;;;;;2.78;2.30;;;;;;;45.34;9.89;101405.25;5007827;28;20058;-78
2021/08/24 10:49:17;;;;;;;3.08;2.03;;;;;;;45.52;10.08;101395.00;5000466;28;20057;-78
2021/08/24 10:51:53;;;;;;;3.17;2.33;;;;;;;45.10;10.54;101405.78;4997614;28;20043;-78
2021/08/24 10:54:32;;;;;;;3.28;2.80;;;;;;;44.94;10.16;101388.97;5004920;28;20054;-78
2021/08/24 10:57:14;;;;;;;2.88;2.20;;;;;;;45.38;10.55;101413.78;4999712;28;20110;-78
2021/08/24 10:59:51;;;;;;;3.45;2.35;;;;;;;46.11;10.06;101407.63;5015460;28;20056;-78
2021/08/24 11:02:30;;;;;;;2.75;2.42;;;;;;;45.95;9.98;101400.50;5007271;28;20400;-78
2021/08/24 11:05:13;;;;;;;2.90;2.25;;;;;;;46.03;10.01;101409.56;5001303;28;20051;-79
2021/08/24 11:07:59;;;;;;;3.65;2.45;;;;;;;45.37;10.78;101403.38;5003998;28;20407;-78
2021/08/24 11:10:37;;;;;;;2.92;2.47;;;;;;;45.92;10.35;101401.56;5006570;28;20064;-78
2021/08/24 11:13:19;;;;;;;2.47;2.10;;;;;;;45.96;9.78;101402.06;5015951;28;20045;-78
2021/08/24 11:15:55;;;;;;;2.47;1.98;;;;;;;45.37;9.68;101395.34;5014394;28;20054;-77
2021/08/24 11:18:37;;;;;;;3.88;2.60;;;;;;;45.49;10.23;101399.06;5012500;28;20538;-77
2021/08/24 11:21:18;;;;;;;2.75;2.28;;;;;;;45.60;9.70;101392.31;5015450;28;20057;-78
2021/08/24 11:24:01;;;;;;;3.45;2.50;;;;;;;45.24;10.26;101389.22;5014602;28;20053;-78
2021/08/24 11:26:40;;;;;;;2.88;2.47;;;;;;;45.88;9.50;101383.38;5009929;28;20046;-78
2021/08/24 11:29:25;;;;;;;3.05;2.70;;;;;;;45.73;9.47;101377.84;5014416;28;20380;-78
2021/08/24 11:32:00;;;;;;;3.17;2.42;;;;;;;44.93;9.85;101387.38;5014807;28;20053;-78
2021/08/24 11:34:35;;;;;;;4.28;2.33;;;;;;;45.38;10.02;101378.47;5013725;28;20547;-78
2021/08/24 11:37:07;;;;;;;2.97;2.67;;;;;;;45.04;9.55;101387.34;5015376;28;20046;-78
2021/08/24 11:39:46;;;;;;;3.25;2.50;;;;;;;45.32;10.16;101377.69;5015491;28;20133;-78
2021/08/24 11:42:22;;;;;;;6.18;2.55;;;;;;;45.43;9.93;101376.88;5014846;28;20049;-76
2021/08/24 11:44:53;;;;;;;3.22;2.30;;;;;;;44.39;10.27;101373.69;5013505;28;20053;-78
2021/08/24 11:47:29;;;;;;;3.78;2.75;;;;;;;43.77;10.57;101370.56;5001020;28;20482;-77
2021/08/24 11:50:02;;;;;;;4.43;2.55;;;;;;;42.85;10.94;101366.81;5015812;28;20049;-77
2021/08/24 11:52:35;;;;;;;3.53;2.35;;;;;;;43.08;12.26;101364.81;5014886;28;20061;-77
2021/08/24 11:55:10;;;;;;;3.08;2.05;;;;;;;42.91;11.11;101373.50;5014849;28;20391;-78
2021/08/24 11:57:42;;;;;;;2.95;2.10;;;;;;;41.42;11.97;101359.84;5023066;28;20046;-77
2021/08/24 12:00:12;;;;;;;3.65;2.72;;;;;;;41.12;12.66;101365.78;5019436;28;20061;-77
2021/08/24 12:02:43;;;;;;;4.32;2.65;;;;;;;41.91;12.72;101363.94;5015365;28;20060;-78
2021/08/24 12:05:18;;;;;;;3.88;3.15;;;;;;;42.65;11.86;101358.88;5014889;28;20471;-77
2021/08/24 12:07:58;;;;;;;2.85;2.17;;;;;;;42.06;12.74;101363.06;5013429;28;20054;-77